Terminal Aerodrome Forecast
Issued by NWS Wilmington, OH

Home | Current Version | Previous Version | Text Only | Print | Product List | Glossary On
Versions: 1 2 3 4 5 6 7 8 9 10 11 12 13 14 15 16 17 18 19 20 21 22
000
FTUS41 KILN 211000 AAA
TAFILN
TAF AMD
KILN 211014Z 2110/2206 22010KT P6SM VCSH BKN050
     FM211200 24012KT P6SM OVC020
     FM211500 27014G24KT P6SM SCT040
     FM211800 28016G26KT P6SM BKN050
     FM220200 31014KT P6SM OVC040=

USA.gov is the U.S. government's official web portal to all federal, state and local government web resources and services.